Terminal Aerodrome Forecast
Issued by NWS North Platte, NE

Home | Current Version | Previous Version | Text Only | Print | Product List | Glossary On
Versions: 1 2 3 4 5 6 7 8 9 10 11 12 13 14 15 16 17
000
FTUS43 KLBF 241310 AAA
TAFVTN
TAF AMD
KVTN 241310Z 2413/2512 33020G29KT P6SM VCSH OVC009
     FM241800 33018G25KT P6SM -SHRA OVC015
     FM250000 34012G18KT 6SM -SHRA OVC015
     FM250300 33011KT 6SM -SHRA OVC015
     FM250600 33011KT P6SM VCSH OVC015=

USA.gov is the U.S. government's official web portal to all federal, state and local government web resources and services.